Quinlan, TX

10:56 PM CDT on 30. Október 2014 (GMT -0500)
APRSWXNET Quinlan TX US | Change Station
CLOSE
Current Station
Personal Weather Stations
Location: Quinlan, TX
Elevation: 501 ft
Nearby Weather Stations

Elev 501 ft 32.95 °N, 96.16 °W | Updated 31 minutes ago

Heiðskírt
Heiðskírt
59 °F
Feels Like 59 °F
N
0
Vindur Breytileg vindátt Vindur from Vestan
Gusts 0.0 mph

Í dag
High -- | Low -- °F
--% Chance of Precip.
Yesterday
High -- | Low -- °F
Precip. -- in
7:40 AM 6:35 PM
Waxing Crescent, 50% visible
Loftþrýstingur 30.14 in
Skyggni 10.0 miles
Clouds Heiðskírt
Daggarmark 55 °F
Raki 87%
Rainfall 0.00 in
Snow Depth Not available.
UV 0 out of 12
Pollen 3.70 out of 12
Air Quality Not available.
Flu Activity Not available.
METAR KGVT 310335Z AUTO 29003KT 10SM CLR 15/11 A3014 RMK AO2

More Conditions Fewer Conditions

Loftþrýstingur 30.14 in
Skyggni 10.0 miles
Clouds Heiðskírt
Daggarmark 55 °F
Raki 87%
Rainfall 0.00 in
Snow Depth Not available.
UV 0 out of 12
Pollen 3.70 out of 12
Air Quality Not available.
Flu Activity Not available.
METAR KGVT 310335Z AUTO 29003KT 10SM CLR 15/11 A3014 RMK AO2

More Conditions Fewer Conditions

Nowcast | as of 9:49 PM CDT on October 30, 2014

Scattered areas of light to moderate rain continue south of a line from Comanche to Hillsboro this evening. This rain is moving south at about 30 mph. Accumulations will be light with no more than an additional few hundredths of an inch possible through midnight. A few more additional areas of light rain or showers may develop in this same area through midnight. A cold front is slowly moving south across the region. Expect clearing skies...lowering dew points...and winds to switch to the north at 5-10 mph behind the front.

×

10-Day Weather Forecast

Almanac

Astronomy

Oct. 30, 2014 Rise Set
Actual Time
Civil Twilight
Nautical Twilight
Astronomical Twilight
Moon
Length Of Visible Light
Length of Day
Tomorrow will be .
, % of the Moon is Illuminated

Today's Extremes

State Highs State Lows

Community

WunderPhotos

Upload Photos

1,766,559 photos uploaded!

WunderBlogs® & News

Nearby

Air Quality

  Air Quality AQ Index Pollutant
Not available.

Snow Depth

Station Depth Elevation

Earthquake Activity

Staður Distance Mag. Time & Date
Minimum magnitude displayed is 2.5.

Coastal Water Temperatures

Staður Hitastig

Nearby Weather Stations